createdAt,value
2018-05-10T00:01:35.197Z,89.41
2018-05-10T00:02:35.760Z,89.70
2018-05-10T00:03:36.324Z,89.47
2018-05-10T00:04:36.888Z,89.56
2018-05-10T00:05:37.451Z,89.70
2018-05-10T00:06:38.012Z,89.65
2018-05-10T00:07:38.574Z,89.27
2018-05-10T00:08:39.139Z,89.37
2018-05-10T00:09:39.702Z,89.56
2018-05-10T00:10:40.265Z,89.32
2018-05-10T00:11:40.829Z,89.27
2018-05-10T00:12:41.414Z,89.47
2018-05-10T00:13:41.999Z,89.27
2018-05-10T00:14:42.581Z,89.75
2018-05-10T00:15:43.145Z,90.42
2018-05-10T00:16:43.708Z,90.33
2018-05-10T00:17:44.270Z,90.04
2018-05-10T00:18:44.853Z,90.23
2018-05-10T00:19:45.416Z,90.14
2018-05-10T00:20:45.978Z,90.04
2018-05-10T00:21:46.539Z,90.23
2018-05-10T00:22:47.081Z,90.61
2018-05-10T00:23:47.626Z,90.61
2018-05-10T00:24:48.181Z,90.52
2018-05-10T00:25:48.730Z,90.61
2018-05-10T00:26:49.280Z,90.04
2018-05-10T00:27:49.826Z,90.61
2018-05-10T00:28:50.375Z,90.61
2018-05-10T00:29:50.927Z,91.00
2018-05-10T00:30:51.484Z,90.90
2018-05-10T00:31:52.037Z,90.90
2018-05-10T00:32:52.594Z,90.90
2018-05-10T00:33:53.145Z,91.28
2018-05-10T00:34:53.696Z,90.86
2018-05-10T00:35:54.246Z,91.53
2018-05-10T00:36:54.801Z,91.34
2018-05-10T00:37:55.343Z,91.72
2018-05-10T00:38:55.896Z,91.43
2018-05-10T00:39:56.447Z,92.01
2018-05-10T00:40:56.993Z,91.91
2018-05-10T00:41:57.539Z,91.91
2018-05-10T00:42:58.093Z,91.91
2018-05-10T00:43:58.643Z,92.39
2018-05-10T00:44:59.197Z,92.30
2018-05-10T00:45:59.747Z,92.49
2018-05-10T00:47:00.300Z,92.39
2018-05-10T00:48:00.854Z,92.30
2018-05-10T00:49:01.399Z,92.20
2018-05-10T00:50:01.948Z,92.49
2018-05-10T00:51:02.492Z,92.58
2018-05-10T00:52:03.044Z,92.25
2018-05-10T00:53:03.600Z,92.63
2018-05-10T00:54:04.145Z,93.02
2018-05-10T00:55:04.701Z,92.82
2018-05-10T00:56:05.253Z,93.30
2018-05-10T00:57:05.802Z,93.21
2018-05-10T00:58:06.349Z,93.30
2018-05-10T00:59:06.898Z,93.49
2018-05-10T01:00:07.448Z,93.30
2018-05-10T01:01:07.996Z,93.78
2018-05-10T01:02:08.551Z,94.45
2018-05-10T01:03:09.099Z,93.98
2018-05-10T01:04:09.639Z,94.26
2018-05-10T01:05:10.190Z,94.07
2018-05-10T01:06:10.739Z,94.26
2018-05-10T01:07:11.289Z,94.64
2018-05-10T01:08:11.841Z,94.64
2018-05-10T01:09:12.388Z,94.84
2018-05-10T01:10:12.944Z,94.64
2018-05-10T01:11:13.488Z,94.07
2018-05-10T01:12:14.042Z,94.45
2018-05-10T01:13:14.596Z,94.74
2018-05-10T01:14:15.143Z,94.93
2018-05-10T01:15:15.692Z,95.12
2018-05-10T01:16:16.237Z,95.03
2018-05-10T01:17:16.785Z,95.22
2018-05-10T01:18:17.333Z,94.74
2018-05-10T01:19:17.880Z,94.45
2018-05-10T01:20:18.434Z,94.40
2018-05-10T01:21:18.977Z,94.79
2018-05-10T01:22:19.528Z,95.27
2018-05-10T01:23:20.070Z,95.17
2018-05-10T01:24:20.626Z,95.17
2018-05-10T01:25:21.170Z,94.79
2018-05-10T01:26:21.719Z,94.89
2018-05-10T01:27:22.270Z,95.17
2018-05-10T01:28:22.811Z,95.17
2018-05-10T01:29:23.361Z,95.07
2018-05-10T01:30:23.906Z,95.17
2018-05-10T01:31:24.466Z,94.89
2018-05-10T01:32:25.010Z,94.89
2018-05-10T01:33:25.632Z,95.65
2018-05-10T01:34:26.097Z,95.75
2018-05-10T01:35:26.642Z,95.65
2018-05-10T01:36:27.198Z,95.94
2018-05-10T01:37:27.756Z,95.65
2018-05-10T01:38:28.302Z,95.65
2018-05-10T01:39:28.858Z,95.84
2018-05-10T01:40:29.407Z,95.75
2018-05-10T01:41:29.951Z,95.65
2018-05-10T01:42:30.502Z,95.22
2018-05-10T01:43:31.053Z,94.65
2018-05-10T01:44:31.600Z,94.65
2018-05-10T01:45:32.152Z,95.03
2018-05-10T01:46:32.700Z,94.84
2018-05-10T01:47:33.254Z,94.36
2018-05-10T01:48:33.798Z,94.07
2018-05-10T01:49:34.351Z,94.26
2018-05-10T01:50:34.906Z,94.65
2018-05-10T01:51:35.454Z,94.17
2018-05-10T01:52:36.003Z,94.74
2018-05-10T01:53:36.569Z,94.26
2018-05-10T01:54:37.108Z,94.55
2018-05-10T01:55:37.656Z,94.17
2018-05-10T01:56:38.205Z,94.17
2018-05-10T01:57:38.752Z,94.26
2018-05-10T01:58:39.295Z,93.79
2018-05-10T01:59:39.848Z,94.17
2018-05-10T02:00:40.397Z,93.98
2018-05-10T02:01:40.943Z,93.98
2018-05-10T02:02:41.492Z,93.98
2018-05-10T02:03:42.039Z,93.98
2018-05-10T02:04:43.578Z,93.79
2018-05-10T02:05:44.135Z,94.55
2018-05-10T02:06:44.681Z,94.36
2018-05-10T02:07:45.228Z,94.36
2018-05-10T02:08:45.787Z,94.93
2018-05-10T02:09:46.335Z,94.65
2018-05-10T02:10:46.886Z,95.22
2018-05-10T02:11:47.434Z,95.12
2018-05-10T02:12:47.987Z,95.79
2018-05-10T02:13:48.539Z,95.89
2018-05-10T02:14:49.176Z,95.89
2018-05-10T02:15:49.633Z,95.61
2018-05-10T02:16:50.185Z,95.89
2018-05-10T02:17:50.735Z,96.27
2018-05-10T02:18:51.285Z,96.61
2018-05-10T02:19:51.837Z,97.28
2018-05-10T02:20:52.386Z,97.75
2018-05-10T02:21:52.933Z,97.85
2018-05-10T02:22:53.482Z,98.43
2018-05-10T02:23:54.034Z,99.19
2018-05-10T02:24:54.589Z,99.57
2018-05-10T02:25:55.141Z,99.86
2018-05-10T02:26:55.695Z,99.99
2018-05-10T02:27:56.246Z,99.99
2018-05-10T02:28:56.795Z,99.99
2018-05-10T02:29:57.343Z,99.99
2018-05-10T02:30:57.894Z,99.99
2018-05-10T02:31:58.442Z,99.99
2018-05-10T02:32:58.993Z,99.99
2018-05-10T02:33:59.545Z,99.99
2018-05-10T02:35:00.094Z,99.99
2018-05-10T02:36:00.643Z,99.99
2018-05-10T02:37:01.193Z,99.99
2018-05-10T02:38:01.738Z,99.99
2018-05-10T02:39:02.298Z,99.99
2018-05-10T02:40:02.837Z,99.99
2018-05-10T02:41:03.385Z,99.99
2018-05-10T02:42:03.932Z,99.99
2018-05-10T02:43:04.481Z,99.99
2018-05-10T02:44:05.033Z,99.99
2018-05-10T02:45:05.675Z,99.99
2018-05-10T02:46:06.119Z,99.99
2018-05-10T02:47:06.671Z,99.99
2018-05-10T02:48:07.224Z,99.99
2018-05-10T02:49:07.772Z,99.99
2018-05-10T02:50:08.321Z,99.99
2018-05-10T02:51:08.864Z,99.99
2018-05-10T02:52:09.413Z,99.99
2018-05-10T02:53:09.962Z,99.99
2018-05-10T02:54:10.511Z,99.99
2018-05-10T02:55:11.060Z,99.99
2018-05-10T02:56:11.607Z,99.99
2018-05-10T02:57:12.155Z,99.99
2018-05-10T02:58:12.706Z,99.99
2018-05-10T02:59:13.250Z,99.99
2018-05-10T03:00:13.803Z,99.99
2018-05-10T03:01:14.347Z,99.99
2018-05-10T03:02:14.898Z,99.99
2018-05-10T03:03:15.448Z,99.99
2018-05-10T03:04:16.007Z,99.99
2018-05-10T03:05:16.550Z,99.99
2018-05-10T03:06:17.104Z,99.99
2018-05-10T03:07:17.654Z,99.99
2018-05-10T03:08:18.202Z,99.99
2018-05-10T03:09:18.748Z,99.99
2018-05-10T03:10:19.299Z,99.99
2018-05-10T03:11:19.850Z,99.99
2018-05-10T03:12:20.399Z,99.99
2018-05-10T03:13:20.946Z,99.99
2018-05-10T03:14:21.497Z,99.99
2018-05-10T03:15:22.045Z,99.99
2018-05-10T03:16:22.595Z,99.99
2018-05-10T03:17:23.146Z,99.99
2018-05-10T03:18:23.694Z,99.99
2018-05-10T03:19:24.243Z,99.99
2018-05-10T03:20:24.798Z,99.99
2018-05-10T03:21:25.343Z,99.99
2018-05-10T03:22:25.886Z,99.99
2018-05-10T03:23:26.438Z,99.99
2018-05-10T03:24:26.989Z,99.99
2018-05-10T03:25:27.542Z,99.99
2018-05-10T03:26:28.087Z,99.99
2018-05-10T03:27:28.638Z,99.99
2018-05-10T03:28:29.190Z,99.99
2018-05-10T03:29:29.731Z,99.99
2018-05-10T03:30:30.287Z,99.99
2018-05-10T03:31:30.830Z,99.99
2018-05-10T03:32:31.379Z,99.99
2018-05-10T03:33:31.925Z,99.99
2018-05-10T03:34:32.482Z,99.99
2018-05-10T03:35:33.034Z,99.99
2018-05-10T03:36:33.584Z,99.99
2018-05-10T03:37:34.129Z,99.99
2018-05-10T03:38:34.686Z,99.99
2018-05-10T03:39:35.230Z,99.99
2018-05-10T03:40:35.857Z,99.99
2018-05-10T03:41:36.328Z,99.99
2018-05-10T03:42:36.874Z,99.99
2018-05-10T03:43:37.430Z,99.99
2018-05-10T03:44:37.978Z,99.99
2018-05-10T03:45:38.530Z,99.99
2018-05-10T03:46:39.081Z,99.99
2018-05-10T03:47:39.636Z,99.99
2018-05-10T03:48:40.185Z,99.99
2018-05-10T03:49:40.738Z,99.99
2018-05-10T03:50:41.291Z,99.99
2018-05-10T03:51:41.842Z,99.99
2018-05-10T03:52:42.394Z,99.99
2018-05-10T03:53:42.951Z,99.99
2018-05-10T03:54:43.503Z,99.99
2018-05-10T03:55:44.057Z,99.99
2018-05-10T03:56:44.614Z,99.99
2018-05-10T03:57:45.167Z,99.99
2018-05-10T03:58:45.721Z,99.99
2018-05-10T03:59:46.271Z,99.99
2018-05-10T04:00:46.822Z,99.99
2018-05-10T04:01:47.378Z,99.99
2018-05-10T04:02:47.928Z,99.99
2018-05-10T04:03:48.482Z,99.99
2018-05-10T04:04:49.035Z,99.99
2018-05-10T04:05:49.586Z,99.99
2018-05-10T04:06:50.132Z,99.99
2018-05-10T04:07:50.677Z,99.99
2018-05-10T04:08:51.224Z,99.99
2018-05-10T04:09:51.776Z,99.99
2018-05-10T04:10:52.322Z,99.99
2018-05-10T04:11:52.872Z,99.99
2018-05-10T04:12:53.422Z,99.99
2018-05-10T04:13:53.978Z,99.99
2018-05-10T04:14:54.531Z,99.99
2018-05-10T04:15:55.090Z,99.99
2018-05-10T04:16:55.647Z,99.99
2018-05-10T04:17:56.199Z,99.99
2018-05-10T04:18:56.747Z,99.99
2018-05-10T04:19:57.304Z,99.99
2018-05-10T04:20:57.861Z,99.99
2018-05-10T04:21:58.419Z,99.99
2018-05-10T04:22:58.970Z,99.99
2018-05-10T04:23:59.529Z,99.99
2018-05-10T04:25:00.079Z,99.99
2018-05-10T04:26:00.636Z,99.99
2018-05-10T04:27:01.194Z,99.99
2018-05-10T04:28:01.740Z,99.99
2018-05-10T04:29:02.297Z,99.99
2018-05-10T04:30:02.853Z,99.99
2018-05-10T04:31:03.405Z,99.99
2018-05-10T04:32:03.994Z,99.99
2018-05-10T04:33:04.550Z,99.99
2018-05-10T04:34:05.108Z,99.99
2018-05-10T04:35:05.664Z,99.99
2018-05-10T04:36:06.220Z,99.99
2018-05-10T04:37:06.775Z,99.99
2018-05-10T04:38:07.344Z,99.99
2018-05-10T04:39:07.890Z,99.99
2018-05-10T04:40:08.449Z,99.99
2018-05-10T04:41:09.008Z,99.99
2018-05-10T04:42:09.626Z,99.99
2018-05-10T04:43:10.120Z,99.99
2018-05-10T04:44:10.672Z,99.99
2018-05-10T04:45:11.221Z,99.99
2018-05-10T04:46:11.774Z,99.99
2018-05-10T04:47:12.335Z,99.99
2018-05-10T04:48:12.888Z,99.99
2018-05-10T04:49:13.447Z,99.99
2018-05-10T04:50:13.995Z,99.99
2018-05-10T04:51:14.553Z,99.99
2018-05-10T04:52:15.111Z,99.99
2018-05-10T04:53:15.672Z,99.99
2018-05-10T04:54:16.225Z,99.99
2018-05-10T04:55:16.781Z,99.99
2018-05-10T04:56:18.325Z,99.99
2018-05-10T04:57:18.885Z,99.99
2018-05-10T04:58:19.441Z,99.99
2018-05-10T04:59:19.995Z,99.99
2018-05-10T05:00:20.558Z,99.99
2018-05-10T05:01:21.112Z,99.99
2018-05-10T05:02:21.672Z,99.99
2018-05-10T05:03:22.319Z,99.99
2018-05-10T05:04:22.779Z,99.99
2018-05-10T05:05:23.337Z,99.99
2018-05-10T05:06:23.887Z,99.99
2018-05-10T05:07:24.444Z,99.99
2018-05-10T05:08:25.001Z,99.99
2018-05-10T05:09:25.560Z,99.99
2018-05-10T05:10:26.115Z,99.99
2018-05-10T05:11:26.678Z,99.99
2018-05-10T05:12:27.233Z,99.99
2018-05-10T05:13:27.789Z,99.99
2018-05-10T05:14:28.346Z,99.99
2018-05-10T05:15:28.900Z,99.99
2018-05-10T05:16:29.457Z,99.99
2018-05-10T05:17:30.007Z,99.99
2018-05-10T05:18:30.562Z,99.99
2018-05-10T05:19:31.124Z,99.99
2018-05-10T05:20:31.684Z,99.99
2018-05-10T05:21:32.325Z,99.99
2018-05-10T05:22:32.798Z,99.99
2018-05-10T05:23:33.353Z,99.99
2018-05-10T05:24:33.911Z,99.99
2018-05-10T05:25:34.471Z,99.99
2018-05-10T05:26:35.028Z,99.99
2018-05-10T05:27:35.583Z,99.99
2018-05-10T05:28:36.136Z,99.99
2018-05-10T05:29:36.692Z,99.99
2018-05-10T05:30:37.244Z,99.99
2018-05-10T05:31:37.800Z,99.99
2018-05-10T05:32:38.403Z,99.99
2018-05-10T05:33:38.920Z,99.99
2018-05-10T05:34:39.474Z,99.99
2018-05-10T05:35:40.071Z,99.99
2018-05-10T05:36:40.664Z,99.99
2018-05-10T05:37:41.135Z,99.99
2018-05-10T05:38:41.693Z,99.99
2018-05-10T05:39:42.248Z,99.99
2018-05-10T05:40:42.804Z,99.99
2018-05-10T05:41:43.356Z,99.99
2018-05-10T05:42:43.907Z,99.99
2018-05-10T05:43:44.466Z,99.99
2018-05-10T05:44:45.025Z,99.99
2018-05-10T05:45:45.575Z,99.99
2018-05-10T05:46:46.130Z,99.99
2018-05-10T05:47:46.689Z,99.99
2018-05-10T05:48:47.243Z,99.99
2018-05-10T05:49:47.803Z,99.99
2018-05-10T05:50:48.353Z,99.99
2018-05-10T05:51:48.915Z,99.99
2018-05-10T05:52:49.466Z,99.99
2018-05-10T05:53:50.022Z,99.99
2018-05-10T05:54:50.573Z,99.99
2018-05-10T05:55:51.131Z,99.99
2018-05-10T05:56:51.691Z,99.99
2018-05-10T05:57:52.252Z,99.99
2018-05-10T05:58:52.811Z,99.99
2018-05-10T05:59:53.364Z,99.99
2018-05-10T06:00:53.987Z,99.99
2018-05-10T06:01:54.473Z,99.99
2018-05-10T06:02:55.036Z,99.99
2018-05-10T06:03:55.594Z,99.99
2018-05-10T06:04:56.149Z,99.99
2018-05-10T06:05:56.704Z,99.99
2018-05-10T06:06:57.261Z,99.99
2018-05-10T06:07:57.819Z,99.99
2018-05-10T06:08:58.382Z,99.99
2018-05-10T06:09:58.938Z,99.99
2018-05-10T06:10:59.494Z,99.99
2018-05-10T06:12:00.054Z,99.99
2018-05-10T06:13:00.611Z,99.99
2018-05-10T06:14:01.171Z,99.99
2018-05-10T06:15:01.728Z,99.99
2018-05-10T06:16:02.362Z,99.99
2018-05-10T06:17:02.839Z,99.99
2018-05-10T06:18:03.399Z,99.99
2018-05-10T06:19:03.956Z,99.99
2018-05-10T06:20:04.514Z,99.99
2018-05-10T06:21:05.077Z,99.99
2018-05-10T06:22:05.635Z,99.99
2018-05-10T06:23:06.208Z,99.99
2018-05-10T06:24:06.744Z,99.99
2018-05-10T06:25:07.345Z,99.99
2018-05-10T06:26:07.858Z,99.99
2018-05-10T06:27:08.419Z,99.99
2018-05-10T06:28:08.970Z,99.99
2018-05-10T06:29:09.521Z,99.99
2018-05-10T06:30:10.082Z,99.99
2018-05-10T06:31:10.633Z,99.99
2018-05-10T06:32:11.186Z,99.99
2018-05-10T06:33:11.742Z,99.99
2018-05-10T06:34:12.296Z,99.90
2018-05-10T06:35:12.906Z,98.28
2018-05-10T06:36:13.409Z,96.13
2018-05-10T06:37:13.968Z,95.75
2018-05-10T06:38:14.526Z,96.70
2018-05-10T06:39:15.084Z,93.88
2018-05-10T06:40:15.641Z,92.73
2018-05-10T06:41:16.192Z,91.39
2018-05-10T06:42:16.751Z,91.44
2018-05-10T06:43:17.312Z,90.39
2018-05-10T06:44:17.867Z,90.48
2018-05-10T06:45:18.420Z,88.03
2018-05-10T06:46:18.974Z,86.21
2018-05-10T06:47:19.534Z,86.31
2018-05-10T06:48:20.099Z,84.97
2018-05-10T06:49:20.653Z,82.86
2018-05-10T06:50:21.215Z,83.20
2018-05-10T06:51:21.774Z,83.01
2018-05-10T06:52:22.336Z,83.68
2018-05-10T06:53:22.896Z,83.87
2018-05-10T06:54:23.460Z,83.30
2018-05-10T06:55:24.019Z,83.87
2018-05-10T06:56:24.575Z,84.22
2018-05-10T06:57:25.129Z,84.98
2018-05-10T06:58:25.693Z,84.88
2018-05-10T06:59:26.247Z,84.98
2018-05-10T07:00:26.809Z,85.27
2018-05-10T07:01:27.360Z,84.98
2018-05-10T07:02:27.922Z,85.50
2018-05-10T07:03:28.471Z,87.99
2018-05-10T07:04:29.030Z,86.12
2018-05-10T07:05:29.596Z,83.05
2018-05-10T07:06:30.148Z,82.67
2018-05-10T07:07:30.703Z,82.48
2018-05-10T07:08:31.261Z,82.09
2018-05-10T07:09:31.863Z,81.81
2018-05-10T07:10:32.377Z,83.53
2018-05-10T07:11:32.940Z,83.48
2018-05-10T07:12:33.505Z,81.95
2018-05-10T07:13:34.064Z,81.66
2018-05-10T07:14:34.624Z,80.74
2018-05-10T07:15:35.181Z,79.59
2018-05-10T07:16:35.745Z,78.19
2018-05-10T07:17:36.310Z,75.63
2018-05-10T07:18:36.874Z,74.01
2018-05-10T07:19:37.441Z,72.28
2018-05-10T07:20:37.999Z,72.33
2018-05-10T07:21:38.568Z,73.20
2018-05-10T07:22:39.129Z,74.02
2018-05-10T07:23:39.689Z,74.83
2018-05-10T07:24:40.254Z,73.35
2018-05-10T07:25:40.811Z,75.04
2018-05-10T07:26:41.380Z,73.99
2018-05-10T07:27:41.936Z,74.95
2018-05-10T07:28:42.497Z,75.10
2018-05-10T07:29:43.071Z,75.39
2018-05-10T07:30:43.620Z,75.71
2018-05-10T07:31:44.177Z,74.82
2018-05-10T07:32:44.736Z,74.95
2018-05-10T07:33:45.294Z,75.01
2018-05-10T07:34:45.855Z,75.29
2018-05-10T07:35:46.409Z,75.58
2018-05-10T07:36:46.970Z,74.72
2018-05-10T07:37:47.527Z,73.86
2018-05-10T07:38:48.090Z,74.43
2018-05-10T07:39:48.647Z,74.68
2018-05-10T07:40:49.204Z,75.01
2018-05-10T07:41:49.771Z,76.35
2018-05-10T07:42:50.323Z,76.98
2018-05-10T07:43:50.877Z,78.03
2018-05-10T07:44:51.436Z,79.66
2018-05-10T07:45:52.020Z,81.73
2018-05-10T07:46:52.586Z,82.11
2018-05-10T07:47:53.136Z,81.92
2018-05-10T07:48:53.694Z,82.20
2018-05-10T07:49:54.254Z,82.64
2018-05-10T07:50:54.812Z,83.98
2018-05-10T07:51:55.375Z,83.60
2018-05-10T07:52:55.933Z,83.69
2018-05-10T07:53:56.488Z,83.69
2018-05-10T07:54:57.053Z,83.40
2018-05-10T07:55:57.629Z,83.94
2018-05-10T07:56:58.174Z,84.32
2018-05-10T07:57:58.730Z,83.94
2018-05-10T07:58:59.287Z,84.23
2018-05-10T07:59:59.845Z,84.32
2018-05-10T08:01:00.393Z,84.89
2018-05-10T08:02:00.949Z,85.28
2018-05-10T08:03:01.500Z,85.47
2018-05-10T08:04:02.058Z,85.75
2018-05-10T08:05:02.616Z,85.81
2018-05-10T08:06:03.184Z,86.38
2018-05-10T08:07:03.741Z,87.24
2018-05-10T08:08:04.292Z,87.72
2018-05-10T08:09:04.847Z,88.29
2018-05-10T08:10:05.472Z,90.01
2018-05-10T08:11:05.950Z,90.11
2018-05-10T08:12:06.510Z,88.96
2018-05-10T08:13:07.063Z,89.73
2018-05-10T08:14:07.618Z,89.92
2018-05-10T08:15:08.171Z,90.39
2018-05-10T08:16:08.733Z,90.49
2018-05-10T08:17:09.326Z,90.59
2018-05-10T08:18:09.839Z,90.97
2018-05-10T08:19:10.398Z,90.59
2018-05-10T08:20:10.956Z,91.93
2018-05-10T08:21:11.510Z,91.25
2018-05-10T08:22:12.063Z,92.02
2018-05-10T08:23:12.621Z,91.74
2018-05-10T08:24:13.199Z,91.64
2018-05-10T08:25:13.724Z,92.21
2018-05-10T08:26:14.280Z,91.45
2018-05-10T08:27:14.837Z,91.83
2018-05-10T08:28:15.396Z,92.21
2018-05-10T08:29:15.953Z,91.50
2018-05-10T08:30:16.563Z,92.11
2018-05-10T08:31:17.065Z,91.83
2018-05-10T08:32:17.629Z,91.74
2018-05-10T08:33:18.177Z,92.88
2018-05-10T08:34:18.732Z,92.79
2018-05-10T08:35:19.289Z,93.74
2018-05-10T08:36:19.861Z,92.83
2018-05-10T08:37:20.409Z,93.41
2018-05-10T08:38:20.960Z,94.51
2018-05-10T08:39:21.521Z,92.40
2018-05-10T08:40:22.078Z,94.36
2018-05-10T08:41:22.632Z,94.22
2018-05-10T08:42:23.192Z,94.93
2018-05-10T08:43:23.746Z,95.03
2018-05-10T08:44:24.307Z,94.46
2018-05-10T08:45:24.864Z,94.93
2018-05-10T08:46:25.417Z,95.61
2018-05-10T08:47:25.974Z,95.84
2018-05-10T08:48:26.534Z,95.46
2018-05-10T08:49:27.093Z,96.46
2018-05-10T08:50:27.647Z,96.17
2018-05-10T08:51:28.212Z,95.03
2018-05-10T08:52:28.763Z,95.03
2018-05-10T08:53:29.319Z,94.84
2018-05-10T08:54:29.873Z,94.27
2018-05-10T08:55:30.431Z,94.65
2018-05-10T08:56:30.989Z,95.61
2018-05-10T08:57:31.552Z,95.61
2018-05-10T08:58:32.111Z,94.74
2018-05-10T08:59:32.663Z,94.46
2018-05-10T09:00:33.218Z,95.03
2018-05-10T09:01:33.772Z,95.03
2018-05-10T09:02:34.328Z,94.70
2018-05-10T09:03:34.883Z,94.70
2018-05-10T09:04:35.441Z,94.12
2018-05-10T09:05:36.000Z,94.41
2018-05-10T09:06:36.556Z,93.84
2018-05-10T09:07:37.112Z,93.84
2018-05-10T09:08:37.671Z,93.45
2018-05-10T09:09:38.231Z,94.22
2018-05-10T09:10:38.782Z,93.16
2018-05-10T09:11:39.334Z,94.60
2018-05-10T09:12:39.889Z,93.74
2018-05-10T09:13:40.444Z,94.22
2018-05-10T09:14:41.000Z,93.93
2018-05-10T09:15:41.551Z,93.55
2018-05-10T09:16:42.106Z,92.88
2018-05-10T09:17:42.667Z,93.16
2018-05-10T09:18:43.224Z,92.88
2018-05-10T09:19:43.772Z,92.97
2018-05-10T09:20:44.336Z,92.79
2018-05-10T09:21:44.891Z,93.16
2018-05-10T09:22:45.448Z,93.45
2018-05-10T09:23:46.004Z,93.55
2018-05-10T09:24:46.562Z,93.74
2018-05-10T09:25:47.117Z,93.74
2018-05-10T09:26:47.675Z,93.36
2018-05-10T09:27:48.235Z,93.55
2018-05-10T09:28:48.794Z,94.22
2018-05-10T09:29:49.348Z,94.41
2018-05-10T09:30:49.905Z,94.41
2018-05-10T09:31:50.460Z,93.84
2018-05-10T09:32:51.017Z,94.22
2018-05-10T09:33:51.575Z,94.41
2018-05-10T09:34:52.132Z,94.98
2018-05-10T09:35:52.690Z,94.70
2018-05-10T09:36:53.251Z,94.60
2018-05-10T09:37:53.810Z,94.89
2018-05-10T09:38:54.372Z,94.70
2018-05-10T09:39:54.934Z,94.79
2018-05-10T09:40:55.485Z,95.17
2018-05-10T09:41:56.034Z,94.60
2018-05-10T09:42:56.593Z,94.70
2018-05-10T09:43:57.147Z,94.89
2018-05-10T09:44:57.731Z,94.98
2018-05-10T09:45:58.258Z,94.74
2018-05-10T09:46:58.817Z,94.17
2018-05-10T09:47:59.371Z,95.65
2018-05-10T09:48:59.929Z,95.03
2018-05-10T09:50:00.486Z,94.07
2018-05-10T09:51:01.044Z,94.70
2018-05-10T09:52:01.597Z,93.74
2018-05-10T09:53:02.145Z,94.17
2018-05-10T09:54:02.706Z,94.84
2018-05-10T09:55:03.260Z,94.84
2018-05-10T09:56:03.819Z,94.55
2018-05-10T09:57:04.374Z,94.07
2018-05-10T09:58:04.933Z,94.65
2018-05-10T09:59:05.488Z,94.84
2018-05-10T10:00:06.039Z,94.51
2018-05-10T10:01:06.598Z,94.79
2018-05-10T10:02:07.154Z,94.79
2018-05-10T10:03:07.714Z,95.27
2018-05-10T10:04:08.267Z,94.70
2018-05-10T10:05:08.819Z,94.70
2018-05-10T10:06:09.388Z,95.07
2018-05-10T10:07:09.935Z,95.56
2018-05-10T10:08:10.490Z,94.98
2018-05-10T10:09:11.045Z,94.31
2018-05-10T10:10:11.598Z,94.60
2018-05-10T10:11:12.149Z,94.79
2018-05-10T10:12:12.768Z,94.89
2018-05-10T10:13:13.259Z,94.70
2018-05-10T10:14:13.815Z,94.60
2018-05-10T10:15:14.435Z,94.89
2018-05-10T10:16:15.028Z,94.70
2018-05-10T10:17:15.610Z,94.79
2018-05-10T10:18:16.166Z,94.89
2018-05-10T10:19:16.720Z,94.70
2018-05-10T10:20:17.278Z,95.17
2018-05-10T10:21:17.844Z,96.22
2018-05-10T10:22:18.400Z,95.75
2018-05-10T10:23:18.958Z,95.36
2018-05-10T10:24:19.514Z,94.98
2018-05-10T10:25:20.102Z,95.27
2018-05-10T10:26:20.621Z,95.56
2018-05-10T10:27:21.190Z,96.13
2018-05-10T10:28:21.729Z,95.17
2018-05-10T10:29:22.282Z,95.84
2018-05-10T10:30:22.835Z,96.42
2018-05-10T10:31:23.387Z,96.42
2018-05-10T10:32:23.978Z,96.70
2018-05-10T10:33:24.496Z,97.08
2018-05-10T10:34:25.112Z,97.08
2018-05-10T10:35:25.603Z,97.47
2018-05-10T10:36:26.159Z,97.33
2018-05-10T10:37:26.722Z,96.42
2018-05-10T10:38:27.278Z,97.08
2018-05-10T10:39:27.833Z,96.89
2018-05-10T10:40:28.393Z,97.37
2018-05-10T10:41:28.951Z,96.32
2018-05-10T10:42:29.512Z,96.22
2018-05-10T10:43:30.071Z,97.08
2018-05-10T10:44:30.622Z,97.23
2018-05-10T10:45:31.215Z,97.52
2018-05-10T10:46:31.739Z,96.37
2018-05-10T10:47:32.288Z,96.56
2018-05-10T10:48:32.846Z,96.27
2018-05-10T10:49:33.400Z,96.47
2018-05-10T10:50:33.958Z,96.75
2018-05-10T10:51:34.520Z,96.47
2018-05-10T10:52:35.077Z,96.18
2018-05-10T10:53:35.632Z,95.98
2018-05-10T10:54:36.184Z,95.12
2018-05-10T10:55:36.735Z,94.84
2018-05-10T10:56:37.334Z,94.36
2018-05-10T10:57:37.848Z,94.31
2018-05-10T10:58:38.406Z,95.07
2018-05-10T10:59:38.958Z,95.07
2018-05-10T11:00:39.520Z,93.84
2018-05-10T11:01:40.085Z,94.12
2018-05-10T11:02:40.640Z,94.26
2018-05-10T11:03:41.197Z,92.97
2018-05-10T11:04:41.751Z,93.26
2018-05-10T11:05:42.309Z,93.07
2018-05-10T11:06:42.863Z,94.79
2018-05-10T11:07:43.418Z,94.26
2018-05-10T11:08:43.975Z,94.02
2018-05-10T11:09:44.533Z,94.65
2018-05-10T11:10:45.104Z,94.55
2018-05-10T11:11:45.653Z,93.12
2018-05-10T11:12:46.211Z,91.82
2018-05-10T11:13:46.770Z,91.72
2018-05-10T11:14:47.333Z,90.96
2018-05-10T11:15:47.896Z,90.29
2018-05-10T11:16:48.449Z,89.33
2018-05-10T11:17:49.005Z,90.09
2018-05-10T11:18:49.566Z,90.14
2018-05-10T11:19:50.126Z,88.61
2018-05-10T11:20:50.786Z,88.28
2018-05-10T11:21:51.242Z,88.09
2018-05-10T11:22:51.802Z,88.37
2018-05-10T11:23:52.361Z,89.28
2018-05-10T11:24:52.919Z,88.51
2018-05-10T11:25:53.473Z,88.23
2018-05-10T11:26:54.038Z,88.13
2018-05-10T11:27:54.597Z,87.27
2018-05-10T11:28:55.150Z,87.65
2018-05-10T11:29:55.719Z,87.27
2018-05-10T11:30:56.280Z,87.27
2018-05-10T11:31:56.827Z,86.50
2018-05-10T11:32:57.417Z,86.21
2018-05-10T11:33:57.951Z,86.98
2018-05-10T11:34:58.507Z,87.21
2018-05-10T11:35:59.064Z,86.35
2018-05-10T11:36:59.631Z,86.64
2018-05-10T11:38:00.180Z,86.83
2018-05-10T11:39:00.792Z,86.25
2018-05-10T11:40:01.298Z,86.54
2018-05-10T11:41:01.854Z,85.68
2018-05-10T11:42:02.413Z,85.88
2018-05-10T11:43:02.977Z,86.45
2018-05-10T11:44:03.539Z,86.07
2018-05-10T11:45:04.092Z,85.25
2018-05-10T11:46:04.651Z,85.54
2018-05-10T11:47:05.205Z,86.12
2018-05-10T11:48:05.767Z,86.02
2018-05-10T11:49:06.323Z,86.21
2018-05-10T11:50:06.884Z,86.31
2018-05-10T11:51:07.445Z,87.08
2018-05-10T11:52:08.004Z,86.98
2018-05-10T11:53:08.563Z,86.41
2018-05-10T11:54:09.119Z,86.50
2018-05-10T11:55:09.686Z,86.50
2018-05-10T11:56:10.246Z,86.41
2018-05-10T11:57:10.799Z,86.69
2018-05-10T11:58:11.361Z,87.65
2018-05-10T11:59:11.916Z,87.55
2018-05-10T12:00:12.474Z,87.79
2018-05-10T12:01:13.032Z,87.21
2018-05-10T12:02:13.590Z,87.31
2018-05-10T12:03:14.151Z,87.12
2018-05-10T12:04:14.710Z,87.50
2018-05-10T12:05:15.265Z,86.21
2018-05-10T12:06:15.824Z,85.93
2018-05-10T12:07:16.406Z,86.54
2018-05-10T12:08:16.951Z,87.02
2018-05-10T12:09:17.514Z,86.16
2018-05-10T12:10:18.072Z,86.07
2018-05-10T12:11:18.632Z,85.97
2018-05-10T12:12:19.184Z,86.16
2018-05-10T12:13:19.748Z,86.16
2018-05-10T12:14:20.301Z,86.21
2018-05-10T12:15:20.861Z,86.49
2018-05-10T12:16:21.422Z,86.21
2018-05-10T12:17:21.981Z,84.44
2018-05-10T12:18:22.541Z,84.67
2018-05-10T12:19:23.099Z,84.58
2018-05-10T12:20:23.669Z,84.77
2018-05-10T12:21:24.210Z,85.15
2018-05-10T12:22:24.774Z,85.68
2018-05-10T12:23:25.334Z,86.01
2018-05-10T12:24:25.892Z,85.97
2018-05-10T12:25:26.451Z,85.58
2018-05-10T12:26:27.010Z,85.58
2018-05-10T12:27:27.570Z,85.97
2018-05-10T12:28:28.134Z,86.25
2018-05-10T12:29:28.685Z,86.64
2018-05-10T12:30:29.297Z,86.83
2018-05-10T12:31:29.805Z,86.74
2018-05-10T12:32:30.364Z,88.08
2018-05-10T12:33:30.927Z,85.88
2018-05-10T12:34:31.483Z,85.78
2018-05-10T12:35:32.038Z,85.68
2018-05-10T12:36:32.609Z,85.58
2018-05-10T12:37:33.242Z,85.78
2018-05-10T12:38:33.722Z,84.91
2018-05-10T12:39:34.281Z,84.91
2018-05-10T12:40:34.839Z,84.72
2018-05-10T12:41:35.445Z,85.01
2018-05-10T12:42:35.949Z,85.11
2018-05-10T12:43:36.506Z,85.01
2018-05-10T12:44:37.056Z,84.44
2018-05-10T12:45:37.614Z,84.53
2018-05-10T12:46:38.172Z,84.72
2018-05-10T12:47:38.723Z,84.82
2018-05-10T12:48:39.323Z,84.44
2018-05-10T12:49:39.846Z,84.44
2018-05-10T12:50:40.404Z,84.15
2018-05-10T12:51:40.978Z,84.05
2018-05-10T12:52:41.545Z,82.46
2018-05-10T12:53:42.300Z,82.32
2018-05-10T12:54:42.868Z,82.14
2018-05-10T12:55:43.423Z,82.42
2018-05-10T12:56:43.983Z,82.71
2018-05-10T12:57:44.544Z,82.14
2018-05-10T12:58:45.100Z,81.98
2018-05-10T12:59:45.660Z,81.46
2018-05-10T13:00:46.237Z,81.22